createdAt,value
2023-02-14T00:00:22.848Z,36.00
2023-02-14T00:02:49.641Z,34.97
2023-02-14T00:05:16.091Z,31.13
2023-02-14T00:07:42.363Z,36.30
2023-02-14T00:10:09.093Z,36.20
2023-02-14T00:12:35.689Z,36.50
2023-02-14T00:15:20.768Z,34.70
2023-02-14T00:17:47.775Z,36.37
2023-02-14T00:20:14.022Z,37.53
2023-02-14T00:22:40.243Z,38.27
2023-02-14T00:25:06.646Z,37.30
2023-02-14T00:27:32.879Z,37.03
2023-02-14T00:30:02.093Z,32.53
2023-02-14T00:32:31.736Z,37.20
2023-02-14T00:34:58.198Z,37.70
2023-02-14T00:37:24.432Z,36.47
2023-02-14T00:39:51.012Z,36.07
2023-02-14T00:42:17.258Z,37.33
2023-02-14T00:44:44.465Z,39.37
2023-02-14T00:47:11.287Z,35.10
2023-02-14T00:49:37.808Z,35.83
2023-02-14T00:52:04.612Z,35.90
2023-02-14T00:54:30.894Z,34.80
2023-02-14T00:56:57.117Z,33.33
2023-02-14T00:59:23.497Z,33.97
2023-02-14T01:01:49.842Z,36.03
2023-02-14T01:04:16.056Z,35.77
2023-02-14T01:06:42.354Z,36.10
2023-02-14T01:09:08.577Z,34.10
2023-02-14T01:11:34.896Z,34.03
2023-02-14T01:14:01.773Z,35.23
2023-02-14T01:16:28.529Z,33.57
2023-02-14T01:18:54.996Z,33.43
2023-02-14T01:21:21.196Z,32.03
2023-02-14T01:23:48.220Z,31.17
2023-02-14T01:26:14.812Z,34.77
2023-02-14T01:28:44.630Z,36.23
2023-02-14T01:31:18.668Z,35.60
2023-02-14T01:33:46.445Z,38.43
2023-02-14T01:36:16.868Z,36.20
2023-02-14T01:38:43.177Z,36.67
2023-02-14T01:41:09.488Z,37.20
2023-02-14T01:43:53.410Z,33.10
2023-02-14T01:46:20.064Z,40.73
2023-02-14T01:48:47.073Z,40.03
2023-02-14T01:51:14.408Z,33.23
2023-02-14T01:53:40.671Z,34.90
2023-02-14T01:56:09.937Z,37.53
2023-02-14T01:58:37.511Z,34.27
2023-02-14T02:01:04.534Z,35.47
2023-02-14T02:03:35.892Z,35.70
2023-02-14T02:06:08.086Z,35.30
2023-02-14T02:08:37.084Z,36.03
2023-02-14T02:11:03.321Z,38.30
2023-02-14T02:13:30.060Z,39.60
2023-02-14T02:16:09.407Z,35.93
2023-02-14T02:18:54.504Z,38.70
2023-02-14T02:21:39.313Z,34.97
2023-02-14T02:24:05.536Z,32.17
2023-02-14T02:26:37.790Z,31.73
2023-02-14T02:29:07.099Z,37.70
2023-02-14T02:31:59.746Z,33.27
2023-02-14T02:34:44.873Z,30.40
2023-02-14T02:37:13.896Z,34.63
2023-02-14T02:39:46.247Z,34.03
2023-02-14T02:42:24.980Z,37.13
2023-02-14T02:45:12.117Z,36.17
2023-02-14T02:47:42.223Z,35.87
2023-02-14T02:50:39.555Z,39.40
2023-02-14T02:53:14.218Z,34.93
2023-02-14T02:56:17.901Z,33.20
2023-02-14T02:59:05.094Z,34.43
2023-02-14T03:01:33.618Z,35.17
2023-02-14T03:04:20.126Z,37.13
2023-02-14T03:06:47.019Z,37.53
2023-02-14T03:09:33.293Z,34.63
2023-02-14T03:12:06.889Z,34.77
2023-02-14T03:14:42.065Z,35.47
2023-02-14T03:17:36.020Z,36.30
2023-02-14T03:20:18.084Z,36.83
2023-02-14T03:22:49.145Z,38.73
2023-02-14T03:25:24.390Z,35.80
2023-02-14T03:27:54.756Z,34.60
2023-02-14T03:30:50.583Z,37.93
2023-02-14T03:33:20.797Z,35.33
2023-02-14T03:35:54.836Z,34.10
2023-02-14T03:38:28.033Z,31.50
2023-02-14T03:40:57.987Z,34.40
2023-02-14T03:43:30.293Z,34.80
2023-02-14T03:46:08.765Z,33.43
2023-02-14T03:48:35.858Z,33.33
2023-02-14T03:51:03.075Z,32.50
2023-02-14T03:53:31.628Z,32.23
2023-02-14T03:56:10.653Z,31.43
2023-02-14T03:58:38.655Z,34.43
2023-02-14T04:01:08.776Z,34.43
2023-02-14T04:03:38.178Z,33.00
2023-02-14T04:06:04.623Z,32.77
2023-02-14T04:08:30.879Z,33.07
2023-02-14T04:10:59.040Z,31.77
2023-02-14T04:13:25.560Z,30.23
2023-02-14T04:15:51.828Z,33.23
2023-02-14T04:18:36.890Z,33.03
2023-02-14T04:21:03.329Z,34.13
2023-02-14T04:23:29.556Z,34.93
2023-02-14T04:25:55.846Z,32.70
2023-02-14T04:28:22.140Z,31.63
2023-02-14T04:30:48.475Z,37.70
2023-02-14T04:33:14.709Z,35.97
2023-02-14T04:35:40.978Z,31.20
2023-02-14T04:38:07.223Z,35.10
2023-02-14T04:40:33.437Z,33.90
2023-02-14T04:43:01.354Z,35.30
2023-02-14T04:45:27.669Z,32.17
2023-02-14T04:47:53.890Z,33.77
2023-02-14T04:50:20.253Z,34.87
2023-02-14T04:52:46.530Z,33.73
2023-02-14T04:55:12.758Z,35.23
2023-02-14T04:57:39.029Z,33.10
2023-02-14T05:00:05.804Z,31.83
2023-02-14T05:02:32.077Z,33.83
2023-02-14T05:04:58.315Z,31.90
2023-02-14T05:07:24.593Z,34.50
2023-02-14T05:09:50.817Z,32.57
2023-02-14T05:12:17.080Z,36.77
2023-02-14T05:14:43.302Z,34.87
2023-02-14T05:17:09.573Z,32.67
2023-02-14T05:19:35.820Z,33.03
2023-02-14T05:22:02.158Z,36.73
2023-02-14T05:24:28.423Z,33.83
2023-02-14T05:26:54.656Z,34.83
2023-02-14T05:29:21.000Z,31.53
2023-02-14T05:31:47.286Z,37.37
2023-02-14T05:34:13.596Z,33.87
2023-02-14T05:36:39.892Z,35.80
2023-02-14T05:39:07.197Z,37.20
2023-02-14T05:41:33.515Z,41.23
2023-02-14T05:43:59.792Z,34.70
2023-02-14T05:46:26.032Z,34.87
2023-02-14T05:48:52.248Z,34.23
2023-02-14T05:51:18.495Z,36.17
2023-02-14T05:53:44.753Z,36.70
2023-02-14T05:56:11.073Z,33.60
2023-02-14T05:58:37.341Z,32.20
2023-02-14T06:01:03.729Z,32.73
2023-02-14T06:03:30.033Z,34.60
2023-02-14T06:05:56.306Z,32.77
2023-02-14T06:08:22.553Z,32.97
2023-02-14T06:10:48.849Z,28.80
2023-02-14T06:13:15.099Z,29.00
2023-02-14T06:15:41.416Z,30.27
2023-02-14T06:18:07.900Z,34.63
2023-02-14T06:20:34.151Z,33.07
2023-02-14T06:23:01.301Z,37.00
2023-02-14T06:25:27.718Z,31.13
2023-02-14T06:27:57.684Z,35.37
2023-02-14T06:30:24.617Z,36.47
2023-02-14T06:32:51.256Z,31.87
2023-02-14T06:35:17.652Z,34.90
2023-02-14T06:37:45.219Z,31.07
2023-02-14T06:40:12.097Z,33.67
2023-02-14T06:42:38.371Z,34.30
2023-02-14T06:45:05.143Z,31.63
2023-02-14T06:47:32.787Z,33.23
2023-02-14T06:50:00.182Z,30.20
2023-02-14T06:52:26.534Z,31.37
2023-02-14T06:54:52.759Z,32.03
2023-02-14T06:57:18.994Z,33.73
2023-02-14T06:59:45.250Z,32.53
2023-02-14T07:02:11.671Z,30.00
2023-02-14T07:04:37.937Z,31.40
2023-02-14T07:07:04.764Z,30.77
2023-02-14T07:09:31.048Z,28.57
2023-02-14T07:11:57.310Z,28.30
2023-02-14T07:14:23.598Z,31.37
2023-02-14T07:16:49.821Z,31.53
2023-02-14T07:19:16.232Z,29.73
2023-02-14T07:21:42.469Z,29.67
2023-02-14T07:24:08.807Z,30.50
2023-02-14T07:26:35.101Z,33.00
2023-02-14T07:29:01.398Z,34.10
2023-02-14T07:31:27.742Z,38.53
2023-02-14T07:33:54.075Z,36.03
2023-02-14T07:36:20.301Z,38.90
2023-02-14T07:38:46.550Z,31.83
2023-02-14T07:41:12.796Z,32.07
2023-02-14T07:43:39.715Z,33.30
2023-02-14T07:46:06.500Z,32.87
2023-02-14T07:48:34.350Z,31.17
2023-02-14T07:51:01.407Z,35.10
2023-02-14T07:53:27.877Z,35.77
2023-02-14T07:55:54.125Z,30.00
2023-02-14T07:58:20.395Z,32.43
2023-02-14T08:00:46.725Z,32.17
2023-02-14T08:03:13.653Z,29.30
2023-02-14T08:05:39.996Z,31.27
2023-02-14T08:08:06.262Z,32.93
2023-02-14T08:10:32.621Z,25.47
2023-02-14T08:12:58.908Z,32.20
2023-02-14T08:15:53.430Z,31.07
2023-02-14T08:18:20.533Z,32.40
2023-02-14T08:20:48.709Z,31.00
2023-02-14T08:23:15.337Z,30.37
2023-02-14T08:25:41.818Z,28.33
2023-02-14T08:28:08.346Z,33.10
2023-02-14T08:30:36.854Z,33.77
2023-02-14T08:33:03.529Z,28.63
2023-02-14T08:35:29.844Z,28.60
2023-02-14T08:37:56.109Z,31.93
2023-02-14T08:40:22.361Z,31.00
2023-02-14T08:42:48.692Z,27.93
2023-02-14T08:45:14.933Z,31.40
2023-02-14T08:47:41.285Z,32.27
2023-02-14T08:50:10.873Z,34.97
2023-02-14T08:52:38.454Z,32.37
2023-02-14T08:55:05.297Z,34.07
2023-02-14T08:57:31.534Z,32.60
2023-02-14T08:59:57.829Z,31.77
2023-02-14T09:02:24.467Z,32.63
2023-02-14T09:04:50.716Z,32.03
2023-02-14T09:07:17.000Z,31.50
2023-02-14T09:09:43.318Z,26.73
2023-02-14T09:12:10.385Z,28.70
2023-02-14T09:14:37.611Z,31.03
2023-02-14T09:17:05.762Z,29.00
2023-02-14T09:19:32.827Z,33.63
2023-02-14T09:21:59.069Z,28.47
2023-02-14T09:24:25.385Z,31.13
2023-02-14T09:26:51.631Z,32.40
2023-02-14T09:29:18.619Z,32.07
2023-02-14T09:31:45.128Z,30.43
2023-02-14T09:34:30.382Z,33.90
2023-02-14T09:37:15.298Z,33.30
2023-02-14T09:39:41.545Z,32.43
2023-02-14T09:42:14.923Z,34.37
2023-02-14T09:44:51.612Z,34.23
2023-02-14T09:47:20.725Z,45.20
2023-02-14T09:49:47.638Z,33.70
2023-02-14T09:52:16.560Z,32.90
2023-02-14T09:54:47.826Z,33.87
2023-02-14T09:57:21.391Z,33.97
2023-02-14T10:00:11.031Z,30.40
2023-02-14T10:02:58.115Z,31.77
2023-02-14T10:05:29.628Z,31.30
2023-02-14T10:08:08.218Z,31.07
2023-02-14T10:10:34.983Z,33.27
2023-02-14T10:13:13.874Z,33.00
2023-02-14T10:15:42.794Z,35.60
2023-02-14T10:18:19.252Z,34.13
2023-02-14T10:20:47.080Z,32.43
2023-02-14T10:23:22.384Z,32.77
2023-02-14T10:25:52.736Z,30.87
2023-02-14T10:28:25.229Z,31.73
2023-02-14T10:31:20.843Z,32.73
2023-02-14T10:33:51.821Z,30.30
2023-02-14T10:36:25.907Z,30.17
2023-02-14T10:38:59.764Z,31.70
2023-02-14T10:41:25.984Z,32.77
2023-02-14T10:44:04.116Z,32.87
2023-02-14T10:46:30.734Z,29.83
2023-02-14T10:49:17.268Z,32.20
2023-02-14T10:51:52.522Z,30.17
2023-02-14T10:54:20.594Z,29.27
2023-02-14T10:57:00.335Z,31.80
2023-02-14T10:59:30.839Z,28.23
2023-02-14T11:01:58.322Z,29.27
2023-02-14T11:04:25.216Z,31.97
2023-02-14T11:06:51.748Z,30.00
2023-02-14T11:09:18.543Z,31.23
2023-02-14T11:11:51.105Z,28.67
2023-02-14T11:14:22.457Z,31.60
2023-02-14T11:16:51.864Z,30.27
2023-02-14T11:19:22.825Z,30.77
2023-02-14T11:21:53.803Z,32.30
2023-02-14T11:24:20.023Z,28.33
2023-02-14T11:26:47.862Z,32.97
2023-02-14T11:29:15.872Z,33.90
2023-02-14T11:31:42.356Z,30.50
2023-02-14T11:34:27.555Z,32.27
2023-02-14T11:36:54.077Z,41.27
2023-02-14T11:39:27.454Z,31.37
2023-02-14T11:41:56.091Z,29.07
2023-02-14T11:44:24.094Z,30.63
2023-02-14T11:46:53.450Z,33.60
2023-02-14T11:49:27.454Z,34.27
2023-02-14T11:51:54.148Z,33.10
2023-02-14T11:54:27.966Z,31.07
2023-02-14T11:56:56.286Z,30.27
2023-02-14T11:59:36.872Z,30.73
2023-02-14T12:02:23.376Z,31.80
2023-02-14T12:04:52.900Z,31.03
2023-02-14T12:07:27.564Z,32.70
2023-02-14T12:10:08.509Z,32.27
2023-02-14T12:12:34.792Z,32.10
2023-02-14T12:15:22.826Z,32.27
2023-02-14T12:17:49.776Z,31.50
2023-02-14T12:20:17.613Z,31.27
2023-02-14T12:22:51.709Z,32.30
2023-02-14T12:25:24.342Z,31.43
2023-02-14T12:27:53.548Z,32.40
2023-02-14T12:30:21.624Z,32.70
2023-02-14T12:32:49.425Z,31.50
2023-02-14T12:35:17.624Z,33.73
2023-02-14T12:37:56.040Z,31.10
2023-02-14T12:40:29.275Z,31.23
2023-02-14T12:42:55.550Z,32.07
2023-02-14T12:45:29.620Z,30.97
2023-02-14T12:48:11.884Z,29.90
2023-02-14T12:50:41.866Z,33.27
2023-02-14T12:53:24.259Z,30.53
2023-02-14T12:56:09.445Z,30.47
2023-02-14T12:58:44.687Z,30.73
2023-02-14T13:01:28.550Z,33.20
2023-02-14T13:04:29.335Z,28.80
2023-02-14T13:06:59.549Z,33.37
2023-02-14T13:09:37.016Z,30.17
2023-02-14T13:12:18.464Z,30.57
2023-02-14T13:14:53.584Z,33.33
2023-02-14T13:17:38.377Z,32.03
2023-02-14T13:20:28.538Z,32.27
2023-02-14T13:22:55.693Z,35.53
2023-02-14T13:25:30.752Z,36.20
2023-02-14T13:27:58.052Z,32.83
2023-02-14T13:30:29.956Z,32.60
2023-02-14T13:32:57.824Z,33.23
2023-02-14T13:35:26.254Z,33.40
2023-02-14T13:38:00.278Z,34.10
2023-02-14T13:40:28.118Z,34.37
2023-02-14T13:42:58.221Z,34.33
2023-02-14T13:45:32.465Z,32.37
2023-02-14T13:48:10.636Z,33.40
2023-02-14T13:50:48.537Z,32.90
2023-02-14T13:53:28.615Z,34.60
2023-02-14T13:55:55.926Z,31.17
2023-02-14T13:58:24.113Z,30.70
2023-02-14T14:00:51.241Z,29.00
2023-02-14T14:03:30.001Z,32.53
2023-02-14T14:06:04.445Z,31.10
2023-02-14T14:08:34.721Z,32.83
2023-02-14T14:11:11.196Z,29.53
2023-02-14T14:13:40.570Z,31.40
2023-02-14T14:16:26.604Z,30.23
2023-02-14T14:18:52.867Z,31.90
2023-02-14T14:21:36.260Z,31.77
2023-02-14T14:24:04.073Z,30.93
2023-02-14T14:26:38.018Z,29.90
2023-02-14T14:29:10.969Z,31.13
2023-02-14T14:31:37.372Z,30.77
2023-02-14T14:34:03.679Z,31.40
2023-02-14T14:36:29.986Z,30.67
2023-02-14T14:38:56.222Z,31.63
2023-02-14T14:41:29.266Z,29.63
2023-02-14T14:43:55.562Z,31.47
2023-02-14T14:46:22.529Z,29.43
2023-02-14T14:48:50.578Z,30.23
2023-02-14T14:51:22.799Z,31.83
2023-02-14T14:54:01.290Z,30.67
2023-02-14T14:56:29.265Z,27.90
2023-02-14T14:58:55.648Z,27.50
2023-02-14T15:01:33.099Z,26.67
2023-02-14T15:04:14.768Z,29.20
2023-02-14T15:06:41.131Z,34.97
2023-02-14T15:09:30.804Z,30.70
2023-02-14T15:12:17.106Z,27.67
2023-02-14T15:14:45.118Z,30.73
2023-02-14T15:17:15.510Z,31.83
2023-02-14T15:19:44.075Z,29.90
2023-02-14T15:22:33.759Z,26.90
2023-02-14T15:25:00.109Z,31.30
2023-02-14T15:27:28.598Z,28.50
2023-02-14T15:29:56.558Z,28.40
2023-02-14T15:32:23.669Z,29.57
2023-02-14T15:34:50.014Z,29.50
2023-02-14T15:37:16.838Z,31.17
2023-02-14T15:39:44.418Z,30.10
2023-02-14T15:42:22.604Z,26.20
2023-02-14T15:44:49.011Z,25.87
2023-02-14T15:47:15.542Z,25.50
2023-02-14T15:49:43.476Z,27.13
2023-02-14T15:52:14.024Z,29.73
2023-02-14T15:54:44.045Z,26.50
2023-02-14T15:57:23.175Z,28.77
2023-02-14T15:59:49.767Z,26.87
2023-02-14T16:02:28.558Z,28.53
2023-02-14T16:04:55.027Z,30.37
2023-02-14T16:07:23.456Z,32.47
2023-02-14T16:09:50.476Z,29.50
2023-02-14T16:12:19.695Z,31.33
2023-02-14T16:14:46.530Z,30.27
2023-02-14T16:17:13.923Z,31.53
2023-02-14T16:19:44.879Z,30.27
2023-02-14T16:22:13.180Z,34.73
2023-02-14T16:24:40.376Z,31.20
2023-02-14T16:27:13.213Z,32.40
2023-02-14T16:29:41.167Z,30.37
2023-02-14T16:32:16.064Z,34.17
2023-02-14T16:34:43.411Z,28.33
2023-02-14T16:37:18.663Z,34.37
2023-02-14T16:39:45.054Z,31.10
2023-02-14T16:42:14.600Z,31.27
2023-02-14T16:44:40.821Z,33.33
2023-02-14T16:47:10.845Z,33.93
2023-02-14T16:49:37.076Z,33.10
2023-02-14T16:52:03.398Z,35.10
2023-02-14T16:54:29.647Z,30.07
2023-02-14T16:56:58.073Z,30.00
2023-02-14T16:59:24.309Z,31.80
2023-02-14T17:01:50.552Z,34.27
2023-02-14T17:04:16.987Z,32.73
2023-02-14T17:06:47.082Z,33.20
2023-02-14T17:09:14.746Z,34.03
2023-02-14T17:11:44.053Z,32.23
2023-02-14T17:14:11.317Z,33.33
2023-02-14T17:16:37.540Z,37.40
2023-02-14T17:19:03.822Z,32.13
2023-02-14T17:21:30.152Z,31.10
2023-02-14T17:23:57.161Z,31.77
2023-02-14T17:26:23.397Z,35.33
2023-02-14T17:28:49.742Z,38.87
2023-02-14T17:31:16.045Z,36.30
2023-02-14T17:33:42.497Z,36.43
2023-02-14T17:36:11.869Z,35.87
2023-02-14T17:38:38.630Z,34.13
2023-02-14T17:41:15.603Z,39.93
2023-02-14T17:43:41.891Z,36.53
2023-02-14T17:46:08.162Z,35.67
2023-02-14T17:48:35.500Z,35.70
2023-02-14T17:51:05.507Z,33.87
2023-02-14T17:53:33.279Z,34.50
2023-02-14T17:56:06.427Z,33.40
2023-02-14T17:58:32.740Z,32.20
2023-02-14T18:01:06.273Z,40.10
2023-02-14T18:03:33.139Z,34.40
2023-02-14T18:06:01.264Z,38.83
2023-02-14T18:08:28.914Z,38.03
2023-02-14T18:10:55.568Z,37.00
2023-02-14T18:13:22.486Z,38.70
2023-02-14T18:15:49.116Z,38.03
2023-02-14T18:18:15.390Z,38.43
2023-02-14T18:20:41.627Z,36.27
2023-02-14T18:23:07.863Z,40.77
2023-02-14T18:25:34.324Z,43.30
2023-02-14T18:28:00.554Z,39.43
2023-02-14T18:30:27.074Z,37.10
2023-02-14T18:32:53.525Z,36.60
2023-02-14T18:35:22.878Z,34.90
2023-02-14T18:37:49.094Z,37.60
2023-02-14T18:40:20.150Z,36.23
2023-02-14T18:42:46.474Z,36.83
2023-02-14T18:45:12.689Z,37.17
2023-02-14T18:47:38.904Z,36.27
2023-02-14T18:50:05.465Z,36.87
2023-02-14T18:52:31.674Z,39.20
2023-02-14T18:54:59.335Z,33.43
2023-02-14T18:57:26.412Z,33.57
2023-02-14T18:59:52.760Z,36.03
2023-02-14T19:02:21.441Z,39.27
2023-02-14T19:04:49.614Z,34.97
2023-02-14T19:07:15.875Z,35.50
2023-02-14T19:09:43.092Z,31.83
2023-02-14T19:12:09.918Z,31.47
2023-02-14T19:14:36.421Z,34.33
2023-02-14T19:17:05.439Z,34.50
2023-02-14T19:19:31.727Z,34.37
2023-02-14T19:21:58.743Z,34.57
2023-02-14T19:24:25.699Z,36.00
2023-02-14T19:26:52.642Z,36.47
2023-02-14T19:29:20.530Z,34.70
2023-02-14T19:31:48.416Z,39.33
2023-02-14T19:34:19.043Z,34.50
2023-02-14T19:36:45.940Z,37.83
2023-02-14T19:39:12.597Z,41.70
2023-02-14T19:41:39.580Z,42.07
2023-02-14T19:44:07.068Z,42.20
2023-02-14T19:46:34.113Z,42.97
2023-02-14T19:49:00.982Z,44.03
2023-02-14T19:51:29.234Z,44.87
2023-02-14T19:53:56.118Z,40.83
2023-02-14T19:56:23.677Z,44.53
2023-02-14T19:58:50.670Z,38.37
2023-02-14T20:01:44.309Z,39.37
2023-02-14T20:04:13.683Z,39.70
2023-02-14T20:06:40.237Z,41.07
2023-02-14T20:09:07.063Z,36.07
2023-02-14T20:11:36.449Z,39.30
2023-02-14T20:14:03.256Z,38.37
2023-02-14T20:16:30.536Z,41.17
2023-02-14T20:18:57.477Z,39.23
2023-02-14T20:21:25.528Z,39.97
2023-02-14T20:23:51.893Z,40.70
2023-02-14T20:26:19.166Z,38.30
2023-02-14T20:28:45.654Z,39.70
2023-02-14T20:31:13.739Z,40.27
2023-02-14T20:33:40.511Z,39.90
2023-02-14T20:36:12.294Z,40.67
2023-02-14T20:38:39.688Z,45.57
2023-02-14T20:41:09.537Z,43.83
2023-02-14T20:43:38.862Z,42.33
2023-02-14T20:46:06.936Z,43.40
2023-02-14T20:48:35.569Z,44.90
2023-02-14T20:51:12.120Z,42.73
2023-02-14T20:53:39.258Z,44.70
2023-02-14T20:56:06.142Z,47.57
2023-02-14T20:58:32.562Z,45.20
2023-02-14T21:01:08.564Z,44.40
2023-02-14T21:03:38.099Z,44.97
2023-02-14T21:06:05.284Z,38.20
2023-02-14T21:08:31.526Z,42.37
2023-02-14T21:10:57.843Z,44.10
2023-02-14T21:13:24.076Z,42.47
2023-02-14T21:15:50.368Z,42.77
2023-02-14T21:18:16.686Z,43.83
2023-02-14T21:20:43.084Z,44.70
2023-02-14T21:23:09.294Z,43.27
2023-02-14T21:25:35.810Z,42.00
2023-02-14T21:28:02.068Z,43.63
2023-02-14T21:30:30.962Z,44.30
2023-02-14T21:32:57.324Z,39.00
2023-02-14T21:35:23.749Z,38.33
2023-02-14T21:37:50.059Z,47.63
2023-02-14T21:40:16.873Z,39.73
2023-02-14T21:42:43.134Z,43.00
2023-02-14T21:45:29.884Z,41.90
2023-02-14T21:48:14.830Z,37.30
2023-02-14T21:50:41.159Z,37.63
2023-02-14T21:53:07.674Z,35.87
2023-02-14T21:55:34.497Z,34.50
2023-02-14T21:58:00.763Z,35.43
2023-02-14T22:00:27.012Z,35.00
2023-02-14T22:02:53.268Z,34.03
2023-02-14T22:05:19.566Z,34.40
2023-02-14T22:07:45.838Z,36.47
2023-02-14T22:10:13.721Z,36.20
2023-02-14T22:12:40.031Z,34.27
2023-02-14T22:15:06.409Z,32.40
2023-02-14T22:17:33.163Z,31.60
2023-02-14T22:19:59.384Z,34.77
2023-02-14T22:22:25.647Z,35.07
2023-02-14T22:24:51.954Z,35.17
2023-02-14T22:27:18.187Z,32.53
2023-02-14T22:29:44.532Z,32.93
2023-02-14T22:32:11.877Z,37.27
2023-02-14T22:34:38.276Z,35.60
2023-02-14T22:37:04.533Z,34.27
2023-02-14T22:39:30.823Z,32.80
2023-02-14T22:41:57.449Z,36.00
2023-02-14T22:44:23.710Z,36.90
2023-02-14T22:46:50.034Z,36.27
2023-02-14T22:49:16.310Z,36.10
2023-02-14T23:03:47.192Z,35.03
2023-02-14T23:06:14.270Z,34.10
2023-02-14T23:08:41.153Z,40.47
2023-02-14T23:11:08.685Z,35.43
2023-02-14T23:13:53.620Z,37.70
2023-02-14T23:16:38.462Z,38.67
2023-02-14T23:19:23.216Z,35.17
2023-02-14T23:21:55.313Z,36.97
2023-02-14T23:24:21.754Z,36.53
2023-02-14T23:26:47.999Z,35.40
2023-02-14T23:29:14.224Z,34.73
2023-02-14T23:31:40.563Z,32.67
2023-02-14T23:34:07.028Z,37.70
2023-02-14T23:36:33.254Z,35.10
2023-02-14T23:38:59.482Z,36.50
2023-02-14T23:41:44.224Z,35.87
2023-02-14T23:44:10.454Z,36.77
2023-02-14T23:46:36.730Z,33.87
2023-02-14T23:49:03.121Z,38.77
2023-02-14T23:51:29.423Z,36.23
2023-02-14T23:53:55.693Z,38.17
2023-02-14T23:56:21.953Z,35.43
2023-02-14T23:58:48.151Z,36.43
